createdAt,value
2024-04-06T00:00:17.088Z,959.7335
2024-04-06T00:01:18.505Z,959.7424
2024-04-06T00:02:19.904Z,959.7382
2024-04-06T00:03:23.807Z,959.7488
2024-04-06T00:04:23.194Z,959.7462
2024-04-06T00:05:24.485Z,959.7365
2024-04-06T00:06:25.733Z,959.7418
2024-04-06T00:07:27.048Z,959.7353
2024-04-06T00:08:28.319Z,959.7458
2024-04-06T00:09:29.608Z,959.7494
2024-04-06T00:10:30.861Z,959.7524
2024-04-06T00:11:32.169Z,959.7535
2024-04-06T00:12:33.635Z,959.7512
2024-04-06T00:13:35.038Z,959.7406
2024-04-06T00:14:36.307Z,959.7542
2024-04-06T00:15:37.587Z,959.7406
2024-04-06T00:16:38.882Z,959.7529
2024-04-06T00:17:40.172Z,959.7571
2024-04-06T00:18:41.611Z,959.7629
2024-04-06T00:19:43.104Z,959.7906
2024-04-06T00:20:44.488Z,959.7906
2024-04-06T00:21:45.940Z,959.7988
2024-04-06T00:22:47.385Z,959.8071
2024-04-06T00:23:48.812Z,959.8147
2024-04-06T00:24:50.255Z,959.8176
2024-04-06T00:25:51.691Z,959.8053
2024-04-06T00:26:53.189Z,959.8094
2024-04-06T00:27:54.556Z,959.8159
2024-04-06T00:28:55.828Z,959.8141
2024-04-06T00:29:57.134Z,959.8441
2024-04-06T00:30:58.392Z,959.8547
2024-04-06T00:31:59.692Z,959.8506
2024-04-06T00:33:01.149Z,959.8383
2024-04-06T00:34:02.591Z,959.8359
2024-04-06T00:35:04.013Z,959.8224
2024-04-06T00:36:05.445Z,959.8118
2024-04-06T00:37:06.888Z,959.8159
2024-04-06T00:38:08.328Z,959.8106
2024-04-06T00:39:09.774Z,959.8171
2024-04-06T00:40:11.240Z,959.8282
2024-04-06T00:41:12.614Z,959.8341
2024-04-06T00:42:14.067Z,959.8371
2024-04-06T00:43:15.506Z,959.8547
2024-04-06T00:44:16.949Z,959.8571
2024-04-06T00:45:18.381Z,959.8541
2024-04-06T00:46:19.827Z,959.8376
2024-04-06T00:47:21.147Z,959.8271
2024-04-06T00:48:22.450Z,959.8259
2024-04-06T00:49:23.725Z,959.8235
2024-04-06T00:50:25.064Z,959.8259
2024-04-06T00:51:26.400Z,959.8271
2024-04-06T00:52:27.819Z,959.8336
2024-04-06T00:53:29.317Z,959.8423
2024-04-06T00:54:30.698Z,959.8435
2024-04-06T00:55:32.147Z,959.8353
2024-04-06T00:56:33.584Z,959.8265
2024-04-06T00:57:35.025Z,959.8259
2024-04-06T00:58:36.365Z,959.8312
2024-04-06T00:59:37.705Z,959.8347
2024-04-06T01:00:39.032Z,959.8430
2024-04-06T01:01:44.326Z,959.8553
2024-04-06T01:02:40.332Z,959.8620
2024-04-06T01:03:41.758Z,959.8741
2024-04-06T01:04:43.198Z,959.8842
2024-04-06T01:05:44.517Z,959.8929
2024-04-06T01:06:45.845Z,959.8989
2024-04-06T01:07:47.183Z,959.9130
2024-04-06T01:08:48.628Z,959.9159
2024-04-06T01:09:50.067Z,959.9153
2024-04-06T01:10:51.506Z,959.9158
2024-04-06T01:11:52.946Z,959.9164
2024-04-06T01:12:54.376Z,959.9188
2024-04-06T01:13:55.816Z,959.9094
2024-04-06T01:14:57.259Z,959.9218
2024-04-06T01:15:58.766Z,959.9106
2024-04-06T01:17:00.157Z,959.9271
2024-04-06T01:18:01.587Z,959.9258
2024-04-06T01:19:03.031Z,959.9482
2024-04-06T01:20:04.462Z,959.9412
2024-04-06T01:21:05.898Z,959.9653
2024-04-06T01:22:07.348Z,959.9665
2024-04-06T01:23:08.644Z,959.9589
2024-04-06T01:24:10.057Z,959.9589
2024-04-06T01:25:11.377Z,959.9529
2024-04-06T01:26:12.846Z,959.9482
2024-04-06T01:27:14.198Z,959.9471
2024-04-06T01:28:15.647Z,959.9435
2024-04-06T01:29:17.070Z,959.9476
2024-04-06T01:30:18.511Z,959.9442
2024-04-06T01:31:19.943Z,959.9541
2024-04-06T01:32:21.477Z,959.9806
2024-04-06T01:33:22.827Z,959.9965
2024-04-06T01:34:24.282Z,960.0112
2024-04-06T01:35:25.862Z,960.0200
2024-04-06T01:36:27.226Z,960.0377
2024-04-06T01:37:28.595Z,960.0506
2024-04-06T01:38:30.107Z,960.0430
2024-04-06T01:39:31.495Z,960.0300
2024-04-06T01:40:33.048Z,960.0012
2024-04-06T01:41:34.378Z,960.0006
2024-04-06T01:42:35.827Z,960.0071
2024-04-06T01:43:37.263Z,960.0124
2024-04-06T01:44:38.711Z,960.0453
2024-04-06T01:45:40.137Z,960.0653
2024-04-06T01:46:41.577Z,960.0647
2024-04-06T01:47:43.026Z,960.0682
2024-04-06T01:48:44.375Z,960.0982
2024-04-06T01:49:45.687Z,960.0977
2024-04-06T01:50:47.009Z,960.1041
2024-04-06T01:51:48.459Z,960.0941
2024-04-06T01:52:49.907Z,960.0912
2024-04-06T01:53:51.315Z,960.0918
2024-04-06T01:54:52.602Z,960.0876
2024-04-06T01:55:53.947Z,960.1082
2024-04-06T01:56:55.345Z,960.1247
2024-04-06T01:57:56.774Z,960.1342
2024-04-06T01:58:58.229Z,960.1129
2024-04-06T01:59:59.672Z,960.1129
2024-04-06T02:01:01.118Z,960.1064
2024-04-06T02:02:02.545Z,960.1076
2024-04-06T02:03:03.848Z,960.1188
2024-04-06T02:04:05.190Z,960.1006
2024-04-06T02:05:06.539Z,960.0947
2024-04-06T02:06:07.949Z,960.0871
2024-04-06T02:07:09.430Z,960.0818
2024-04-06T02:08:10.862Z,960.0665
2024-04-06T02:09:12.316Z,960.0782
2024-04-06T02:10:13.752Z,960.0888
2024-04-06T02:11:15.167Z,960.1041
2024-04-06T02:12:16.639Z,960.1059
2024-04-06T02:13:18.073Z,960.1141
2024-04-06T02:14:19.607Z,960.1271
2024-04-06T02:15:20.924Z,960.1071
2024-04-06T02:16:22.387Z,960.1030
2024-04-06T02:17:23.861Z,960.0883
2024-04-06T02:18:25.267Z,960.0829
2024-04-06T02:19:26.783Z,960.0794
2024-04-06T02:20:28.232Z,960.0618
2024-04-06T02:21:29.594Z,960.0688
2024-04-06T02:22:31.353Z,960.0771
2024-04-06T02:23:32.794Z,960.0700
2024-04-06T02:24:34.261Z,960.0812
2024-04-06T02:25:35.662Z,960.0859
2024-04-06T02:26:37.089Z,960.0847
2024-04-06T02:27:38.552Z,960.0959
2024-04-06T02:28:39.981Z,960.0930
2024-04-06T02:29:41.430Z,960.0959
2024-04-06T02:30:42.709Z,960.1094
2024-04-06T02:31:44.070Z,960.1247
2024-04-06T02:32:45.429Z,960.1382
2024-04-06T02:33:46.856Z,960.1406
2024-04-06T02:34:48.337Z,960.1606
2024-04-06T02:35:49.745Z,960.1594
2024-04-06T02:36:51.037Z,960.1800
2024-04-06T02:37:52.355Z,960.1994
2024-04-06T02:38:53.682Z,960.2071
2024-04-06T02:39:54.955Z,960.2194
2024-04-06T02:40:56.251Z,960.2418
2024-04-06T02:41:57.774Z,960.2565
2024-04-06T02:42:59.261Z,960.2712
2024-04-06T02:44:00.620Z,960.2724
2024-04-06T02:45:02.155Z,960.2665
2024-04-06T02:46:03.501Z,960.2676
2024-04-06T02:47:04.943Z,960.2653
2024-04-06T02:48:06.386Z,960.2606
2024-04-06T02:49:07.816Z,960.2424
2024-04-06T02:50:09.248Z,960.2300
2024-04-06T02:51:10.704Z,960.2206
2024-04-06T02:52:12.143Z,960.1935
2024-04-06T02:53:13.567Z,960.1794
2024-04-06T02:54:15.026Z,960.1547
2024-04-06T02:55:16.466Z,960.1282
2024-04-06T02:56:17.911Z,960.1071
2024-04-06T02:57:19.346Z,960.0888
2024-04-06T02:58:20.755Z,960.0735
2024-04-06T02:59:22.212Z,960.0841
2024-04-06T03:00:23.666Z,960.1035
2024-04-06T03:01:25.097Z,960.1171
2024-04-06T03:02:26.575Z,960.1282
2024-04-06T03:03:27.995Z,960.1259
2024-04-06T03:04:29.415Z,960.1047
2024-04-06T03:05:30.724Z,960.0853
2024-04-06T03:06:32.007Z,960.0518
2024-04-06T03:07:33.526Z,960.0336
2024-04-06T03:08:34.867Z,960.0224
2024-04-06T03:09:36.316Z,960.0147
2024-04-06T03:10:37.732Z,960.0447
2024-04-06T03:11:39.186Z,960.0506
2024-04-06T03:12:40.599Z,960.0459
2024-04-06T03:13:42.068Z,960.0300
2024-04-06T03:14:43.377Z,960.0312
2024-04-06T03:15:44.952Z,960.0106
2024-04-06T03:16:46.385Z,960.0053
2024-04-06T03:17:47.815Z,960.0006
2024-04-06T03:18:49.259Z,959.9982
2024-04-06T03:19:50.715Z,960.0006
2024-04-06T03:20:52.019Z,960.0212
2024-04-06T03:21:53.308Z,960.0441
2024-04-06T03:22:54.712Z,960.0547
2024-04-06T03:23:56.234Z,960.0712
2024-04-06T03:24:57.696Z,960.0671
2024-04-06T03:25:59.028Z,960.0794
2024-04-06T03:27:00.450Z,960.0812
2024-04-06T03:28:01.944Z,960.0853
2024-04-06T03:29:03.335Z,960.0824
2024-04-06T03:30:04.798Z,960.1147
2024-04-06T03:31:06.212Z,960.1488
2024-04-06T03:32:07.746Z,960.1782
2024-04-06T03:33:09.106Z,960.1959
2024-04-06T03:34:10.545Z,960.2036
2024-04-06T03:35:11.988Z,960.2053
2024-04-06T03:36:13.427Z,960.2083
2024-04-06T03:37:14.869Z,960.1947
2024-04-06T03:38:16.301Z,960.1965
2024-04-06T03:39:17.731Z,960.1871
2024-04-06T03:40:19.014Z,960.1664
2024-04-06T03:41:20.344Z,960.1588
2024-04-06T03:42:21.752Z,960.1429
2024-04-06T03:43:23.042Z,960.1259
2024-04-06T03:44:24.437Z,960.1341
2024-04-06T03:45:25.754Z,960.1359
2024-04-06T03:46:27.064Z,960.1259
2024-04-06T03:47:28.379Z,960.1294
2024-04-06T03:48:29.734Z,960.1165
2024-04-06T03:49:31.170Z,960.1029
2024-04-06T03:50:32.674Z,960.0841
2024-04-06T03:51:34.027Z,960.0735
2024-04-06T03:52:35.339Z,960.0712
2024-04-06T03:53:36.620Z,960.0794
2024-04-06T03:54:38.055Z,960.0823
2024-04-06T03:55:39.492Z,960.0829
2024-04-06T03:56:40.946Z,960.0906
2024-04-06T03:57:42.375Z,960.1082
2024-04-06T03:58:43.826Z,960.1017
2024-04-06T03:59:45.266Z,960.1212
2024-04-06T04:00:46.704Z,960.1306
2024-04-06T04:01:48.144Z,960.1577
2024-04-06T04:02:49.574Z,960.1541
2024-04-06T04:03:51.015Z,960.1394
2024-04-06T04:04:52.455Z,960.1312
2024-04-06T04:05:53.910Z,960.1247
2024-04-06T04:06:55.354Z,960.1188
2024-04-06T04:07:56.784Z,960.1312
2024-04-06T04:08:58.234Z,960.1747
2024-04-06T04:09:59.655Z,960.1829
2024-04-06T04:11:01.112Z,960.2076
2024-04-06T04:12:02.530Z,960.2206
2024-04-06T04:13:03.978Z,960.2247
2024-04-06T04:14:05.409Z,960.2347
2024-04-06T04:15:06.853Z,960.2465
2024-04-06T04:16:08.286Z,960.2706
2024-04-06T04:17:09.735Z,960.2877
2024-04-06T04:18:11.174Z,960.3011
2024-04-06T04:19:12.609Z,960.3011
2024-04-06T04:20:13.905Z,960.3053
2024-04-06T04:21:15.198Z,960.3100
2024-04-06T04:22:16.504Z,960.2982
2024-04-06T04:23:17.849Z,960.3141
2024-04-06T04:24:19.164Z,960.3094
2024-04-06T04:25:20.616Z,960.3082
2024-04-06T04:26:22.055Z,960.3141
2024-04-06T04:27:23.498Z,960.3218
2024-04-06T04:28:24.936Z,960.3200
2024-04-06T04:29:26.395Z,960.3441
2024-04-06T04:30:27.826Z,960.3517
2024-04-06T04:31:29.286Z,960.3571
2024-04-06T04:32:30.754Z,960.3483
2024-04-06T04:33:32.140Z,960.3465
2024-04-06T04:34:33.580Z,960.3653
2024-04-06T04:35:35.051Z,960.3747
2024-04-06T04:36:36.386Z,960.3776
2024-04-06T04:37:37.688Z,960.3912
2024-04-06T04:38:39.056Z,960.3994
2024-04-06T04:39:40.462Z,960.4023
2024-04-06T04:40:41.742Z,960.4030
2024-04-06T04:41:43.067Z,960.4036
2024-04-06T04:42:44.462Z,960.4353
2024-04-06T04:43:45.906Z,960.4706
2024-04-06T04:44:53.483Z,960.4771
2024-04-06T04:45:47.529Z,960.4740
2024-04-06T04:46:49.075Z,960.4583
2024-04-06T04:47:50.470Z,960.4717
2024-04-06T04:48:51.774Z,960.4776
2024-04-06T04:49:53.297Z,960.4929
2024-04-06T04:50:54.599Z,960.5165
2024-04-06T04:51:55.949Z,960.5330
2024-04-06T04:52:57.238Z,960.5359
2024-04-06T04:53:58.707Z,960.5400
2024-04-06T04:55:00.171Z,960.5553
2024-04-06T04:56:01.607Z,960.5806
2024-04-06T04:57:02.908Z,960.5853
2024-04-06T04:58:04.297Z,960.5794
2024-04-06T04:59:05.630Z,960.5547
2024-04-06T05:00:07.011Z,960.5453
2024-04-06T05:01:08.539Z,960.5529
2024-04-06T05:02:09.906Z,960.5406
2024-04-06T05:03:11.337Z,960.5312
2024-04-06T05:04:12.607Z,960.5200
2024-04-06T05:05:13.896Z,960.5206
2024-04-06T05:06:15.203Z,960.5247
2024-04-06T05:07:16.458Z,960.5294
2024-04-06T05:08:17.759Z,960.5289
2024-04-06T05:09:19.010Z,960.5406
2024-04-06T05:10:20.259Z,960.5524
2024-04-06T05:11:21.614Z,960.5900
2024-04-06T05:12:23.023Z,960.6064
2024-04-06T05:13:24.471Z,960.6259
2024-04-06T05:14:25.918Z,960.6541
2024-04-06T05:15:27.349Z,960.6523
2024-04-06T05:16:28.833Z,960.6441
2024-04-06T05:17:30.244Z,960.6659
2024-04-06T05:18:31.677Z,960.6724
2024-04-06T05:19:32.982Z,960.6771
2024-04-06T05:20:34.324Z,960.6918
2024-04-06T05:21:35.682Z,960.7041
2024-04-06T05:22:37.112Z,960.7106
2024-04-06T05:23:38.627Z,960.7376
2024-04-06T05:24:39.965Z,960.7418
2024-04-06T05:25:41.234Z,960.7335
2024-04-06T05:26:42.589Z,960.7311
2024-04-06T05:27:43.962Z,960.7441
2024-04-06T05:28:45.231Z,960.7571
2024-04-06T05:29:46.543Z,960.7900
2024-04-06T05:30:47.986Z,960.8200
2024-04-06T05:31:49.418Z,960.8406
2024-04-06T05:32:50.698Z,960.8418
2024-04-06T05:33:51.994Z,960.8341
2024-04-06T05:34:53.432Z,960.8259
2024-04-06T05:35:54.858Z,960.8229
2024-04-06T05:36:56.314Z,960.8336
2024-04-06T05:37:57.738Z,960.8388
2024-04-06T05:38:59.006Z,960.8365
2024-04-06T05:40:00.298Z,960.8359
2024-04-06T05:41:01.737Z,960.8306
2024-04-06T05:42:03.191Z,960.8300
2024-04-06T05:43:04.624Z,960.8135
2024-04-06T05:44:07.597Z,960.8200
2024-04-06T05:45:09.007Z,960.8294
2024-04-06T05:46:10.259Z,960.8324
2024-04-06T05:47:11.669Z,960.8406
2024-04-06T05:48:13.099Z,960.8694
2024-04-06T05:49:14.607Z,960.8818
2024-04-06T05:50:15.988Z,960.9059
2024-04-06T05:51:17.418Z,960.9053
2024-04-06T05:52:18.707Z,960.9070
2024-04-06T05:53:20.066Z,960.9258
2024-04-06T05:54:21.420Z,960.9453
2024-04-06T05:55:22.666Z,960.9412
2024-04-06T05:56:23.987Z,960.9347
2024-04-06T05:57:25.431Z,960.9294
2024-04-06T05:58:26.861Z,960.9106
2024-04-06T05:59:28.321Z,960.9017
2024-04-06T06:00:29.740Z,960.9265
2024-04-06T06:01:31.199Z,960.9482
2024-04-06T06:02:32.728Z,960.9636
2024-04-06T06:03:33.979Z,960.9776
2024-04-06T06:04:35.499Z,960.9858
2024-04-06T06:05:36.789Z,960.9918
2024-04-06T06:06:38.051Z,961.0035
2024-04-06T06:07:39.512Z,961.0124
2024-04-06T06:08:40.953Z,961.0142
2024-04-06T06:09:42.377Z,961.0089
2024-04-06T06:10:43.884Z,961.0165
2024-04-06T06:11:45.271Z,961.0200
2024-04-06T06:12:46.717Z,961.0229
2024-04-06T06:13:48.147Z,961.0189
2024-04-06T06:14:49.576Z,961.0018
2024-04-06T06:15:51.026Z,960.9888
2024-04-06T06:16:52.507Z,960.9724
2024-04-06T06:17:53.923Z,960.9412
2024-04-06T06:18:55.326Z,960.9258
2024-04-06T06:19:56.595Z,960.9276
2024-04-06T06:20:58.007Z,960.9294
2024-04-06T06:21:59.346Z,960.9365
2024-04-06T06:23:00.792Z,960.9465
2024-04-06T06:24:02.254Z,960.9476
2024-04-06T06:25:03.676Z,960.9529
2024-04-06T06:26:05.107Z,960.9594
2024-04-06T06:27:06.568Z,960.9717
2024-04-06T06:28:07.985Z,961.0024
2024-04-06T06:29:09.448Z,961.0323
2024-04-06T06:30:10.868Z,961.0494
2024-04-06T06:31:12.303Z,961.0565
2024-04-06T06:32:13.753Z,961.0647
2024-04-06T06:33:15.195Z,961.0694
2024-04-06T06:34:16.654Z,961.0653
2024-04-06T06:35:18.069Z,961.0612
2024-04-06T06:38:20.511Z,961.0875
2024-04-06T06:41:23.573Z,961.1081
2024-04-06T06:42:24.934Z,961.1124
2024-04-06T06:43:26.384Z,961.1165
2024-04-06T06:44:27.838Z,961.1176
2024-04-06T06:45:29.269Z,961.1082
2024-04-06T06:46:30.693Z,961.1047
2024-04-06T06:47:32.179Z,961.1035
2024-04-06T06:48:33.570Z,961.1135
2024-04-06T06:49:35.017Z,961.1106
2024-04-06T06:50:36.455Z,961.0994
2024-04-06T06:51:37.896Z,961.1011
2024-04-06T06:52:39.352Z,961.1165
2024-04-06T06:53:40.622Z,961.1294
2024-04-06T06:54:42.828Z,961.1329
2024-04-06T06:55:44.237Z,961.1253
2024-04-06T06:56:45.682Z,961.1276
2024-04-06T06:57:47.131Z,961.1288
2024-04-06T06:58:48.366Z,961.1288
2024-04-06T07:00:50.346Z,961.1000
2024-04-06T07:01:51.650Z,961.1047
2024-04-06T07:02:52.909Z,961.1171
2024-04-06T07:03:54.208Z,961.1141
2024-04-06T07:04:55.458Z,961.0794
2024-04-06T07:05:56.897Z,961.0576
2024-04-06T07:07:58.937Z,961.0731
2024-04-06T07:09:02.748Z,961.0771
2024-04-06T07:10:00.786Z,961.0737
2024-04-06T07:11:02.078Z,961.0724
2024-04-06T07:12:03.325Z,961.0800
2024-04-06T07:13:04.652Z,961.0782
2024-04-06T07:14:06.082Z,961.0771
2024-04-06T07:15:07.498Z,961.0724
2024-04-06T07:16:08.775Z,961.0694
2024-04-06T07:17:10.060Z,961.0718
2024-04-06T07:18:11.329Z,961.0659
2024-04-06T07:19:12.927Z,961.0724
2024-04-06T07:20:14.190Z,961.0853
2024-04-06T07:21:15.505Z,961.0970
2024-04-06T07:22:16.956Z,961.0853
2024-04-06T07:23:18.286Z,961.0753
2024-04-06T07:24:19.553Z,961.0582
2024-04-06T07:25:20.814Z,961.0558
2024-04-06T07:26:22.078Z,961.0576
2024-04-06T07:27:23.503Z,961.0653
2024-04-06T07:28:24.942Z,961.0794
2024-04-06T07:29:26.386Z,961.0812
2024-04-06T07:30:27.833Z,961.1006
2024-04-06T07:31:29.279Z,961.0959
2024-04-06T07:32:30.770Z,961.0782
2024-04-06T07:33:32.124Z,961.0694
2024-04-06T07:34:33.595Z,961.0883
2024-04-06T07:35:35.020Z,961.0800
2024-04-06T07:36:36.471Z,961.0883
2024-04-06T07:37:37.898Z,961.0906
2024-04-06T07:39:20.084Z,961.1006
2024-04-06T07:39:39.298Z,961.1173
2024-04-06T07:40:40.625Z,961.1365
2024-04-06T07:41:42.055Z,961.1476
2024-04-06T07:42:43.498Z,961.1570
2024-04-06T07:43:44.944Z,961.1476
2024-04-06T07:44:46.380Z,961.1353
2024-04-06T07:45:47.671Z,961.1359
2024-04-06T07:46:49.525Z,961.1406
2024-04-06T07:47:50.968Z,961.1406
2024-04-06T07:48:52.381Z,961.1100
2024-04-06T07:49:53.835Z,961.1082
2024-04-06T07:50:55.286Z,961.1011
2024-04-06T07:51:56.728Z,961.0994
2024-04-06T07:52:58.151Z,961.0947
2024-04-06T07:53:59.442Z,961.0883
2024-04-06T07:55:00.727Z,961.0865
2024-04-06T07:56:02.018Z,961.0970
2024-04-06T07:57:03.425Z,961.1047
2024-04-06T07:58:04.713Z,961.1106
2024-04-06T07:59:06.014Z,961.1094
2024-04-06T08:00:07.454Z,961.1076
2024-04-06T08:01:08.797Z,961.1000
2024-04-06T08:02:10.208Z,961.1017
2024-04-06T08:03:11.657Z,961.1006
2024-04-06T08:04:12.981Z,961.0988
2024-04-06T08:05:14.305Z,961.1047
2024-04-06T08:06:15.697Z,961.1082
2024-04-06T08:07:17.131Z,961.1171
2024-04-06T08:08:18.456Z,961.1253
2024-04-06T08:09:19.745Z,961.1300
2024-04-06T08:10:21.226Z,961.1359
2024-04-06T08:11:22.537Z,961.1312
2024-04-06T08:12:23.997Z,961.1265
2024-04-06T08:13:25.431Z,961.1335
2024-04-06T08:14:26.846Z,961.1329
2024-04-06T08:15:30.830Z,961.1347
2024-04-06T08:16:29.738Z,961.1469
2024-04-06T08:17:31.197Z,961.1612
2024-04-06T08:18:32.620Z,961.1729
2024-04-06T08:19:34.066Z,961.1617
2024-04-06T08:20:35.494Z,961.1700
2024-04-06T08:21:36.788Z,961.1677
2024-04-06T08:22:38.053Z,961.1647
2024-04-06T08:23:39.502Z,961.1617
2024-04-06T08:24:40.996Z,961.1647
2024-04-06T08:25:42.411Z,961.1582
2024-04-06T08:26:43.813Z,961.1894
2024-04-06T08:27:45.097Z,961.2000
2024-04-06T08:28:46.526Z,961.2141
2024-04-06T08:29:47.818Z,961.2247
2024-04-06T08:30:49.121Z,961.2159
2024-04-06T08:31:50.462Z,961.2059
2024-04-06T08:32:51.730Z,961.1918
2024-04-06T08:33:53.036Z,961.1577
2024-04-06T08:34:54.393Z,961.1570
2024-04-06T08:35:55.822Z,961.1606
2024-04-06T08:36:57.270Z,961.1629
2024-04-06T08:37:58.723Z,961.1688
2024-04-06T08:39:00.148Z,961.1900
2024-04-06T08:40:01.604Z,961.2094
2024-04-06T08:41:03.017Z,961.2012
2024-04-06T08:42:04.459Z,961.1942
2024-04-06T08:43:05.911Z,961.2224
2024-04-06T08:44:07.348Z,961.2476
2024-04-06T08:45:08.765Z,961.2418
2024-04-06T08:46:10.252Z,961.2347
2024-04-06T08:47:11.656Z,961.2294
2024-04-06T08:48:13.102Z,961.2424
2024-04-06T08:49:14.580Z,961.2400
2024-04-06T08:50:15.986Z,961.2341
2024-04-06T08:51:17.422Z,961.2300
2024-04-06T08:52:18.857Z,961.2324
2024-04-06T08:53:20.343Z,961.2524
2024-04-06T08:54:21.767Z,961.2506
2024-04-06T08:55:23.177Z,961.2671
2024-04-06T08:56:24.627Z,961.2589
2024-04-06T08:57:26.056Z,961.2424
2024-04-06T08:58:27.356Z,961.2341
2024-04-06T08:59:28.636Z,961.2400
2024-04-06T09:00:30.098Z,961.2542
2024-04-06T09:01:31.488Z,961.2147
2024-04-06T09:02:32.935Z,961.1929
2024-04-06T09:03:34.389Z,961.2118
2024-04-06T09:04:35.839Z,961.2100
2024-04-06T09:05:37.247Z,961.2147
2024-04-06T09:06:38.694Z,961.2053
2024-04-06T09:07:40.133Z,961.2076
2024-04-06T09:08:41.580Z,961.2000
2024-04-06T09:09:43.012Z,961.1612
2024-04-06T09:10:44.464Z,961.1476
2024-04-06T09:11:45.894Z,961.1771
2024-04-06T09:12:47.379Z,961.1677
2024-04-06T09:13:48.907Z,961.1388
2024-04-06T09:14:50.245Z,961.1400
2024-04-06T09:15:51.662Z,961.1347
2024-04-06T09:16:53.170Z,961.1447
2024-04-06T09:17:54.541Z,961.1423
2024-04-06T09:18:55.979Z,961.1394
2024-04-06T09:19:57.425Z,961.1124
2024-04-06T09:20:58.863Z,961.1082
2024-04-06T09:22:00.300Z,961.0977
2024-04-06T09:23:01.577Z,961.1194
2024-04-06T09:24:02.844Z,961.1147
2024-04-06T09:25:04.338Z,961.0806
2024-04-06T09:26:05.603Z,961.0836
2024-04-06T09:27:06.895Z,961.1241
2024-04-06T09:28:08.318Z,961.1388
2024-04-06T09:29:09.753Z,961.1536
2024-04-06T09:30:11.125Z,961.1365
2024-04-06T09:31:12.459Z,961.1271
2024-04-06T09:32:13.744Z,961.1106
2024-04-06T09:33:15.180Z,961.1318
2024-04-06T09:34:16.649Z,961.1312
2024-04-06T09:35:18.120Z,961.1064
2024-04-06T09:36:19.587Z,961.1212
2024-04-06T09:37:20.944Z,961.1129
2024-04-06T09:38:25.663Z,961.1171
2024-04-06T09:39:23.826Z,961.1487
2024-04-06T09:40:25.254Z,961.1688
2024-04-06T09:41:26.698Z,961.1947
2024-04-06T09:42:27.977Z,961.1989
2024-04-06T09:43:29.276Z,961.2088
2024-04-06T09:44:30.708Z,961.2241
2024-04-06T09:45:32.145Z,961.2229
2024-04-06T09:46:33.596Z,961.1965
2024-04-06T09:47:35.014Z,961.1782
2024-04-06T09:48:36.455Z,961.1664
2024-04-06T09:49:37.815Z,961.1588
2024-04-06T09:50:39.105Z,961.1624
2024-04-06T09:51:40.465Z,961.1394
2024-04-06T09:52:41.898Z,961.1265
2024-04-06T09:53:43.343Z,961.1194
2024-04-06T09:54:44.776Z,961.1141
2024-04-06T09:55:46.225Z,961.1171
2024-04-06T09:56:47.679Z,961.0977
2024-04-06T09:57:48.941Z,961.0806
2024-04-06T09:58:50.249Z,961.0571
2024-04-06T09:59:52.397Z,961.0618
2024-04-06T10:00:54.667Z,961.0459
2024-04-06T10:01:56.106Z,961.0242
2024-04-06T10:02:57.548Z,961.0200
2024-04-06T10:03:58.978Z,961.0112
2024-04-06T10:05:00.347Z,961.0135
2024-04-06T10:06:01.621Z,961.0353
2024-04-06T10:07:02.908Z,961.0336
2024-04-06T10:08:04.252Z,961.0341
2024-04-06T10:09:05.560Z,961.0335
2024-04-06T10:10:07.016Z,961.0341
2024-04-06T10:11:08.464Z,961.0559
2024-04-06T10:12:09.904Z,961.0624
2024-04-06T10:13:11.350Z,961.0588
2024-04-06T10:14:13.795Z,961.0541
2024-04-06T10:15:16.079Z,961.0312
2024-04-06T10:16:17.456Z,961.0094
2024-04-06T10:17:18.744Z,960.9847
2024-04-06T10:18:20.138Z,960.9706
2024-04-06T10:19:21.599Z,960.9500
2024-04-06T10:20:22.855Z,960.9512
2024-04-06T10:21:24.141Z,960.9388
2024-04-06T10:22:25.600Z,960.9088
2024-04-06T10:23:27.028Z,960.8912
2024-04-06T10:24:28.458Z,960.9124
2024-04-06T10:25:29.898Z,960.9141
2024-04-06T10:26:31.341Z,960.9141
2024-04-06T10:27:32.772Z,960.9088
2024-04-06T10:28:34.234Z,960.9194
2024-04-06T10:29:35.656Z,960.9382
2024-04-06T10:30:37.120Z,960.9800
2024-04-06T10:31:46.058Z,960.9876
2024-04-06T10:32:38.668Z,960.9960
2024-04-06T10:33:40.116Z,961.0106
2024-04-06T10:34:49.690Z,961.0330
2024-04-06T10:35:41.597Z,961.0320
2024-04-06T10:36:42.919Z,961.0388
2024-04-06T10:37:44.246Z,961.0171
2024-04-06T10:38:45.627Z,961.0182
2024-04-06T10:39:46.881Z,961.0212
2024-04-06T10:40:48.308Z,961.0194
2024-04-06T10:41:49.855Z,961.0082
2024-04-06T10:42:51.176Z,961.0035
2024-04-06T10:43:52.622Z,960.9929
2024-04-06T10:44:54.056Z,960.9600
2024-04-06T10:45:55.528Z,960.9376
2024-04-06T10:46:56.990Z,960.9135
2024-04-06T10:47:58.404Z,960.9194
2024-04-06T10:48:59.767Z,960.9218
2024-04-06T10:50:01.125Z,960.9082
2024-04-06T10:51:02.447Z,960.9117
2024-04-06T10:52:03.819Z,960.9229
2024-04-06T10:53:05.242Z,960.9164
2024-04-06T10:54:06.691Z,960.9070
2024-04-06T10:55:08.131Z,960.9153
2024-04-06T10:56:09.658Z,960.8947
2024-04-06T10:57:11.101Z,960.8706
2024-04-06T10:58:12.481Z,960.8871
2024-04-06T10:59:13.814Z,960.8976
2024-04-06T11:00:15.104Z,960.8876
2024-04-06T11:01:16.483Z,960.8824
2024-04-06T11:02:17.904Z,960.8853
2024-04-06T11:03:19.348Z,960.8953
2024-04-06T11:04:20.898Z,960.8806
2024-04-06T11:05:22.266Z,960.8336
2024-04-06T11:06:23.669Z,960.8253
2024-04-06T11:07:25.099Z,960.8206
2024-04-06T11:08:26.365Z,960.8135
2024-04-06T11:09:27.645Z,960.8124
2024-04-06T11:10:28.934Z,960.8441
2024-04-06T11:11:30.209Z,960.8611
2024-04-06T11:12:31.657Z,960.8765
2024-04-06T11:13:33.102Z,960.8706
2024-04-06T11:14:34.537Z,960.8553
2024-04-06T11:15:35.987Z,960.8747
2024-04-06T11:16:37.539Z,960.8741
2024-04-06T11:17:38.931Z,960.8882
2024-04-06T11:18:42.159Z,960.8818
2024-04-06T11:19:43.628Z,960.8511
2024-04-06T11:20:45.087Z,960.8477
2024-04-06T11:21:46.434Z,960.8336
2024-04-06T11:22:47.768Z,960.8294
2024-04-06T11:23:49.405Z,960.8159
2024-04-06T11:24:50.847Z,960.8224
2024-04-06T11:25:52.274Z,960.7653
2024-04-06T11:26:53.717Z,960.7612
2024-04-06T11:27:55.204Z,960.7382
2024-04-06T11:28:56.608Z,960.7271
2024-04-06T11:29:58.880Z,960.7130
2024-04-06T11:31:01.430Z,960.6771
2024-04-06T11:32:02.699Z,960.6536
2024-04-06T11:33:04.001Z,960.6494
2024-04-06T11:34:05.418Z,960.6483
2024-04-06T11:35:06.872Z,960.6194
2024-04-06T11:36:08.308Z,960.5870
2024-04-06T11:37:09.815Z,960.5565
2024-04-06T11:38:11.175Z,960.5441
2024-04-06T11:39:12.612Z,960.5547
2024-04-06T11:40:14.062Z,960.5629
2024-04-06T11:41:15.498Z,960.5429
2024-04-06T11:42:16.956Z,960.5335
2024-04-06T11:43:18.546Z,960.5224
2024-04-06T11:44:19.805Z,960.5212
2024-04-06T11:45:21.284Z,960.5330
2024-04-06T11:46:22.754Z,960.5471
2024-04-06T11:47:24.147Z,960.5253
2024-04-06T11:48:26.982Z,960.4994
2024-04-06T11:49:26.108Z,960.5031
2024-04-06T11:50:27.421Z,960.5118
2024-04-06T11:51:28.762Z,960.5318
2024-04-06T11:52:30.037Z,960.5488
2024-04-06T11:53:31.518Z,960.5236
2024-04-06T11:54:32.945Z,960.5129
2024-04-06T11:55:34.387Z,960.5129
2024-04-06T11:56:35.806Z,960.5259
2024-04-06T11:57:37.266Z,960.5212
2024-04-06T11:58:38.533Z,960.5018
2024-04-06T11:59:39.854Z,960.5082
2024-04-06T12:00:41.279Z,960.4670
2024-04-06T12:01:42.711Z,960.4259
2024-04-06T12:02:44.144Z,960.4030
2024-04-06T12:03:45.630Z,960.4088
2024-04-06T12:04:47.022Z,960.4064
2024-04-06T12:05:48.467Z,960.4077
2024-04-06T12:06:49.934Z,960.4182